sensor_id;sensor_type;location;lat;lon;timestamp;temperature;humidity
58951;DHT22;44730;53.158;6.398;2023-02-04T00:00:59;6.40;99.90
58951;DHT22;44730;53.158;6.398;2023-02-04T00:05:54;6.40;99.90
58951;DHT22;44730;53.158;6.398;2023-02-04T00:08:19;6.30;99.90
58951;DHT22;44730;53.158;6.398;2023-02-04T00:10:45;6.30;99.90
58951;DHT22;44730;53.158;6.398;2023-02-04T00:13:11;6.40;99.90
58951;DHT22;44730;53.158;6.398;2023-02-04T00:15:37;6.70;99.90
58951;DHT22;44730;53.158;6.398;2023-02-04T00:18:03;7.70;99.90
58951;DHT22;44730;53.158;6.398;2023-02-04T00:20:30;6.40;99.90
58951;DHT22;44730;53.158;6.398;2023-02-04T00:22:55;6.40;99.90
58951;DHT22;44730;53.158;6.398;2023-02-04T00:25:21;6.60;99.90
58951;DHT22;44730;53.158;6.398;2023-02-04T00:27:50;6.40;99.90
58951;DHT22;44730;53.158;6.398;2023-02-04T00:30:16;6.40;99.90
58951;DHT22;44730;53.158;6.398;2023-02-04T00:32:42;6.60;99.90
58951;DHT22;44730;53.158;6.398;2023-02-04T00:35:10;6.40;99.90
58951;DHT22;44730;53.158;6.398;2023-02-04T00:37:36;6.50;99.90
58951;DHT22;44730;53.158;6.398;2023-02-04T00:40:02;7.40;99.90
58951;DHT22;44730;53.158;6.398;2023-02-04T00:44:54;6.50;99.90
58951;DHT22;44730;53.158;6.398;2023-02-04T00:47:19;6.50;99.90
58951;DHT22;44730;53.158;6.398;2023-02-04T00:49:45;6.90;99.90
58951;DHT22;44730;53.158;6.398;2023-02-04T00:52:11;6.40;99.90
58951;DHT22;44730;53.158;6.398;2023-02-04T00:54:36;7.90;99.90
58951;DHT22;44730;53.158;6.398;2023-02-04T00:57:02;6.50;99.90
58951;DHT22;44730;53.158;6.398;2023-02-04T00:59:28;6.50;99.90
58951;DHT22;44730;53.158;6.398;2023-02-04T01:04:20;6.50;99.90
58951;DHT22;44730;53.158;6.398;2023-02-04T01:06:46;6.50;99.90
58951;DHT22;44730;53.158;6.398;2023-02-04T01:09:12;6.60;99.90
58951;DHT22;44730;53.158;6.398;2023-02-04T01:11:37;5.20;99.90
58951;DHT22;44730;53.158;6.398;2023-02-04T01:14:03;6.60;99.90
58951;DHT22;44730;53.158;6.398;2023-02-04T01:16:29;6.60;99.90
58951;DHT22;44730;53.158;6.398;2023-02-04T01:18:55;7.70;99.90
58951;DHT22;44730;53.158;6.398;2023-02-04T01:21:22;6.70;99.90
58951;DHT22;44730;53.158;6.398;2023-02-04T01:23:48;6.60;99.90
58951;DHT22;44730;53.158;6.398;2023-02-04T01:26:18;7.30;99.90
58951;DHT22;44730;53.158;6.398;2023-02-04T01:28:44;7.00;99.90
58951;DHT22;44730;53.158;6.398;2023-02-04T01:31:10;7.00;99.90
58951;DHT22;44730;53.158;6.398;2023-02-04T01:33:36;6.70;99.90
58951;DHT22;44730;53.158;6.398;2023-02-04T01:36:01;6.70;99.90
58951;DHT22;44730;53.158;6.398;2023-02-04T01:38:33;6.70;99.90
58951;DHT22;44730;53.158;6.398;2023-02-04T01:41:01;7.40;99.90
58951;DHT22;44730;53.158;6.398;2023-02-04T01:43:28;6.80;99.90
58951;DHT22;44730;53.158;6.398;2023-02-04T01:45:58;6.70;99.90
58951;DHT22;44730;53.158;6.398;2023-02-04T01:48:32;6.70;99.90
58951;DHT22;44730;53.158;6.398;2023-02-04T01:51:10;6.70;99.90
58951;DHT22;44730;53.158;6.398;2023-02-04T01:53:37;6.60;99.90
58951;DHT22;44730;53.158;6.398;2023-02-04T01:56:18;6.70;99.90
58951;DHT22;44730;53.158;6.398;2023-02-04T01:58:45;6.90;99.90
58951;DHT22;44730;53.158;6.398;2023-02-04T02:01:34;7.80;99.90
58951;DHT22;44730;53.158;6.398;2023-02-04T02:04:01;7.20;99.90
58951;DHT22;44730;53.158;6.398;2023-02-04T02:06:27;7.10;99.90
58951;DHT22;44730;53.158;6.398;2023-02-04T02:08:53;6.70;99.90
58951;DHT22;44730;53.158;6.398;2023-02-04T02:11:19;7.90;99.90
58951;DHT22;44730;53.158;6.398;2023-02-04T02:13:45;6.60;99.90
58951;DHT22;44730;53.158;6.398;2023-02-04T02:16:11;7.80;99.90
58951;DHT22;44730;53.158;6.398;2023-02-04T02:18:37;6.70;99.90
58951;DHT22;44730;53.158;6.398;2023-02-04T02:21:05;7.00;99.90
58951;DHT22;44730;53.158;6.398;2023-02-04T02:23:48;6.50;99.90
58951;DHT22;44730;53.158;6.398;2023-02-04T02:26:16;6.60;99.90
58951;DHT22;44730;53.158;6.398;2023-02-04T02:28:46;6.60;99.90
58951;DHT22;44730;53.158;6.398;2023-02-04T02:31:14;6.60;99.90
58951;DHT22;44730;53.158;6.398;2023-02-04T02:33:40;6.60;99.90
58951;DHT22;44730;53.158;6.398;2023-02-04T02:36:07;6.50;99.90
58951;DHT22;44730;53.158;6.398;2023-02-04T02:38:33;6.60;99.90
58951;DHT22;44730;53.158;6.398;2023-02-04T02:40:59;6.50;99.90
58951;DHT22;44730;53.158;6.398;2023-02-04T02:43:26;5.60;99.90
58951;DHT22;44730;53.158;6.398;2023-02-04T02:45:54;6.60;99.90
58951;DHT22;44730;53.158;6.398;2023-02-04T02:48:20;7.00;99.90
58951;DHT22;44730;53.158;6.398;2023-02-04T02:50:47;7.20;99.90
58951;DHT22;44730;53.158;6.398;2023-02-04T02:53:15;6.50;99.90
58951;DHT22;44730;53.158;6.398;2023-02-04T02:55:42;6.50;99.90
58951;DHT22;44730;53.158;6.398;2023-02-04T02:58:21;6.80;99.90
58951;DHT22;44730;53.158;6.398;2023-02-04T03:00:48;6.80;99.90
58951;DHT22;44730;53.158;6.398;2023-02-04T03:03:17;7.00;99.90
58951;DHT22;44730;53.158;6.398;2023-02-04T03:05:46;7.90;99.90
58951;DHT22;44730;53.158;6.398;2023-02-04T03:08:13;6.50;99.90
58951;DHT22;44730;53.158;6.398;2023-02-04T03:10:41;6.40;99.90
58951;DHT22;44730;53.158;6.398;2023-02-04T03:13:07;6.40;99.90
58951;DHT22;44730;53.158;6.398;2023-02-04T03:15:33;7.90;99.90
58951;DHT22;44730;53.158;6.398;2023-02-04T03:17:59;6.30;99.90
58951;DHT22;44730;53.158;6.398;2023-02-04T03:20:27;7.40;99.90
58951;DHT22;44730;53.158;6.398;2023-02-04T03:22:54;6.70;99.90
58951;DHT22;44730;53.158;6.398;2023-02-04T03:25:22;6.40;99.90
58951;DHT22;44730;53.158;6.398;2023-02-04T03:27:51;6.40;99.90
58951;DHT22;44730;53.158;6.398;2023-02-04T03:30:20;7.20;99.90
58951;DHT22;44730;53.158;6.398;2023-02-04T03:32:45;5.40;99.90
58951;DHT22;44730;53.158;6.398;2023-02-04T03:35:11;6.40;99.90
58951;DHT22;44730;53.158;6.398;2023-02-04T03:37:37;6.40;99.90
58951;DHT22;44730;53.158;6.398;2023-02-04T03:40:03;7.30;99.90
58951;DHT22;44730;53.158;6.398;2023-02-04T03:42:29;6.40;99.90
58951;DHT22;44730;53.158;6.398;2023-02-04T03:44:55;6.40;99.90
58951;DHT22;44730;53.158;6.398;2023-02-04T03:47:21;6.30;99.90
58951;DHT22;44730;53.158;6.398;2023-02-04T03:49:46;6.40;99.90
58951;DHT22;44730;53.158;6.398;2023-02-04T03:52:12;6.40;99.90
58951;DHT22;44730;53.158;6.398;2023-02-04T03:54:38;6.40;99.90
58951;DHT22;44730;53.158;6.398;2023-02-04T03:57:04;6.30;99.90
58951;DHT22;44730;53.158;6.398;2023-02-04T03:59:29;6.30;99.90
58951;DHT22;44730;53.158;6.398;2023-02-04T04:01:55;6.30;99.90
58951;DHT22;44730;53.158;6.398;2023-02-04T04:04:21;6.20;99.90
58951;DHT22;44730;53.158;6.398;2023-02-04T04:06:46;6.20;99.90
58951;DHT22;44730;53.158;6.398;2023-02-04T04:09:12;6.20;99.90
58951;DHT22;44730;53.158;6.398;2023-02-04T04:11:38;6.20;99.90
58951;DHT22;44730;53.158;6.398;2023-02-04T04:14:04;6.30;99.90
58951;DHT22;44730;53.158;6.398;2023-02-04T04:16:29;6.70;99.90
58951;DHT22;44730;53.158;6.398;2023-02-04T04:18:55;6.80;99.90
58951;DHT22;44730;53.158;6.398;2023-02-04T04:21:21;6.20;99.90
58951;DHT22;44730;53.158;6.398;2023-02-04T04:23:47;5.10;99.90
58951;DHT22;44730;53.158;6.398;2023-02-04T04:26:13;6.20;99.90
58951;DHT22;44730;53.158;6.398;2023-02-04T04:28:38;7.30;99.90
58951;DHT22;44730;53.158;6.398;2023-02-04T04:31:04;6.10;99.90
58951;DHT22;44730;53.158;6.398;2023-02-04T04:33:30;6.00;99.90
58951;DHT22;44730;53.158;6.398;2023-02-04T04:35:56;6.00;99.90
58951;DHT22;44730;53.158;6.398;2023-02-04T04:38:22;6.80;99.90
58951;DHT22;44730;53.158;6.398;2023-02-04T04:40:47;6.00;99.90
58951;DHT22;44730;53.158;6.398;2023-02-04T04:43:13;7.30;99.90
58951;DHT22;44730;53.158;6.398;2023-02-04T04:45:39;6.20;99.90
58951;DHT22;44730;53.158;6.398;2023-02-04T04:48:04;6.00;99.90
58951;DHT22;44730;53.158;6.398;2023-02-04T04:50:30;6.00;99.90
58951;DHT22;44730;53.158;6.398;2023-02-04T04:52:56;6.10;99.90
58951;DHT22;44730;53.158;6.398;2023-02-04T04:55:22;6.60;99.90
58951;DHT22;44730;53.158;6.398;2023-02-04T04:57:47;6.90;99.90
58951;DHT22;44730;53.158;6.398;2023-02-04T05:00:20;6.00;99.90
58951;DHT22;44730;53.158;6.398;2023-02-04T05:02:48;6.00;99.90
58951;DHT22;44730;53.158;6.398;2023-02-04T05:05:14;6.00;99.90
58951;DHT22;44730;53.158;6.398;2023-02-04T05:07:40;6.00;99.90
58951;DHT22;44730;53.158;6.398;2023-02-04T05:10:06;6.90;99.90
58951;DHT22;44730;53.158;6.398;2023-02-04T05:12:32;5.90;99.90
58951;DHT22;44730;53.158;6.398;2023-02-04T05:14:57;6.00;99.90
58951;DHT22;44730;53.158;6.398;2023-02-04T05:17:23;6.70;99.90
58951;DHT22;44730;53.158;6.398;2023-02-04T05:19:49;5.90;99.90
58951;DHT22;44730;53.158;6.398;2023-02-04T05:22:14;6.20;99.90
58951;DHT22;44730;53.158;6.398;2023-02-04T05:24:40;6.60;99.90
58951;DHT22;44730;53.158;6.398;2023-02-04T05:27:06;6.60;99.90
58951;DHT22;44730;53.158;6.398;2023-02-04T05:29:31;6.30;99.90
58951;DHT22;44730;53.158;6.398;2023-02-04T05:31:57;6.20;99.90
58951;DHT22;44730;53.158;6.398;2023-02-04T05:34:23;5.90;99.90
58951;DHT22;44730;53.158;6.398;2023-02-04T05:36:48;6.90;99.90
58951;DHT22;44730;53.158;6.398;2023-02-04T05:39:14;6.20;99.90
58951;DHT22;44730;53.158;6.398;2023-02-04T05:41:43;5.80;99.90
58951;DHT22;44730;53.158;6.398;2023-02-04T05:44:09;5.20;99.90
58951;DHT22;44730;53.158;6.398;2023-02-04T05:46:34;5.80;99.90
58951;DHT22;44730;53.158;6.398;2023-02-04T05:49:01;7.30;99.90
58951;DHT22;44730;53.158;6.398;2023-02-04T05:51:26;5.80;99.90
58951;DHT22;44730;53.158;6.398;2023-02-04T05:53:52;5.80;99.90
58951;DHT22;44730;53.158;6.398;2023-02-04T05:56:18;5.80;99.90
58951;DHT22;44730;53.158;6.398;2023-02-04T05:58:43;6.10;99.90
58951;DHT22;44730;53.158;6.398;2023-02-04T06:01:09;5.70;99.90
58951;DHT22;44730;53.158;6.398;2023-02-04T06:03:35;6.70;99.90
58951;DHT22;44730;53.158;6.398;2023-02-04T06:06:01;5.70;99.90
58951;DHT22;44730;53.158;6.398;2023-02-04T06:08:26;5.80;99.90
58951;DHT22;44730;53.158;6.398;2023-02-04T06:10:52;5.70;99.90
58951;DHT22;44730;53.158;6.398;2023-02-04T06:13:18;6.90;99.90
58951;DHT22;44730;53.158;6.398;2023-02-04T06:15:44;7.00;99.90
58951;DHT22;44730;53.158;6.398;2023-02-04T06:18:10;5.70;99.90
58951;DHT22;44730;53.158;6.398;2023-02-04T06:20:36;5.60;99.90
58951;DHT22;44730;53.158;6.398;2023-02-04T06:23:02;6.60;99.90
58951;DHT22;44730;53.158;6.398;2023-02-04T06:25:27;6.30;99.90
58951;DHT22;44730;53.158;6.398;2023-02-04T06:27:53;5.50;99.90
58951;DHT22;44730;53.158;6.398;2023-02-04T06:30:19;5.60;99.90
58951;DHT22;44730;53.158;6.398;2023-02-04T06:32:47;5.50;99.90
58951;DHT22;44730;53.158;6.398;2023-02-04T06:35:13;6.70;99.90
58951;DHT22;44730;53.158;6.398;2023-02-04T06:37:41;5.50;99.90
58951;DHT22;44730;53.158;6.398;2023-02-04T06:40:07;6.50;99.90
58951;DHT22;44730;53.158;6.398;2023-02-04T06:42:33;5.40;99.90
58951;DHT22;44730;53.158;6.398;2023-02-04T06:44:59;5.50;99.90
58951;DHT22;44730;53.158;6.398;2023-02-04T06:47:25;6.80;99.90
58951;DHT22;44730;53.158;6.398;2023-02-04T06:49:51;5.30;99.90
58951;DHT22;44730;53.158;6.398;2023-02-04T06:52:17;5.40;99.90
58951;DHT22;44730;53.158;6.398;2023-02-04T06:54:42;6.40;99.90
58951;DHT22;44730;53.158;6.398;2023-02-04T06:57:08;6.00;99.90
58951;DHT22;44730;53.158;6.398;2023-02-04T06:59:38;5.90;99.90
58951;DHT22;44730;53.158;6.398;2023-02-04T07:02:06;5.50;99.90
58951;DHT22;44730;53.158;6.398;2023-02-04T07:04:33;5.30;99.90
58951;DHT22;44730;53.158;6.398;2023-02-04T07:07:01;5.40;99.90
58951;DHT22;44730;53.158;6.398;2023-02-04T07:09:27;5.30;99.90
58951;DHT22;44730;53.158;6.398;2023-02-04T07:11:53;6.70;99.90
58951;DHT22;44730;53.158;6.398;2023-02-04T07:14:19;5.30;99.90
58951;DHT22;44730;53.158;6.398;2023-02-04T07:16:45;5.30;99.90
58951;DHT22;44730;53.158;6.398;2023-02-04T07:19:13;5.30;99.90
58951;DHT22;44730;53.158;6.398;2023-02-04T07:21:39;5.30;99.90
58951;DHT22;44730;53.158;6.398;2023-02-04T07:24:43;5.30;99.90
58951;DHT22;44730;53.158;6.398;2023-02-04T07:27:08;5.50;99.90
58951;DHT22;44730;53.158;6.398;2023-02-04T07:29:34;6.60;99.90
58951;DHT22;44730;53.158;6.398;2023-02-04T07:32:03;5.20;99.90
58951;DHT22;44730;53.158;6.398;2023-02-04T07:34:30;5.20;99.90
58951;DHT22;44730;53.158;6.398;2023-02-04T07:36:56;5.50;99.90
58951;DHT22;44730;53.158;6.398;2023-02-04T07:39:25;5.30;99.90
58951;DHT22;44730;53.158;6.398;2023-02-04T07:41:51;6.30;99.90
58951;DHT22;44730;53.158;6.398;2023-02-04T07:44:17;5.40;99.90
58951;DHT22;44730;53.158;6.398;2023-02-04T07:46:43;5.30;99.90
58951;DHT22;44730;53.158;6.398;2023-02-04T07:49:11;5.30;99.90
58951;DHT22;44730;53.158;6.398;2023-02-04T07:51:37;6.40;99.90
58951;DHT22;44730;53.158;6.398;2023-02-04T07:54:02;5.50;99.90
58951;DHT22;44730;53.158;6.398;2023-02-04T07:56:28;6.10;99.90
58951;DHT22;44730;53.158;6.398;2023-02-04T07:58:54;5.40;99.90
58951;DHT22;44730;53.158;6.398;2023-02-04T08:01:20;5.40;99.90
58951;DHT22;44730;53.158;6.398;2023-02-04T08:06:12;5.40;99.90
58951;DHT22;44730;53.158;6.398;2023-02-04T08:08:37;5.40;99.90
58951;DHT22;44730;53.158;6.398;2023-02-04T08:11:03;5.30;99.90
58951;DHT22;44730;53.158;6.398;2023-02-04T08:13:29;5.50;99.90
58951;DHT22;44730;53.158;6.398;2023-02-04T08:15:55;5.50;99.90
58951;DHT22;44730;53.158;6.398;2023-02-04T08:18:21;5.80;99.90
58951;DHT22;44730;53.158;6.398;2023-02-04T08:20:56;5.60;99.90
58951;DHT22;44730;53.158;6.398;2023-02-04T08:23:23;5.50;99.90
58951;DHT22;44730;53.158;6.398;2023-02-04T08:25:49;6.90;99.90
58951;DHT22;44730;53.158;6.398;2023-02-04T08:28:14;5.60;99.90
58951;DHT22;44730;53.158;6.398;2023-02-04T08:30:40;6.10;99.90
58951;DHT22;44730;53.158;6.398;2023-02-04T08:33:06;6.30;99.90
58951;DHT22;44730;53.158;6.398;2023-02-04T08:35:31;6.10;99.90
58951;DHT22;44730;53.158;6.398;2023-02-04T08:37:57;5.70;99.90
58951;DHT22;44730;53.158;6.398;2023-02-04T08:40:23;5.70;99.90
58951;DHT22;44730;53.158;6.398;2023-02-04T08:42:48;5.80;99.90
58951;DHT22;44730;53.158;6.398;2023-02-04T08:45:14;6.10;99.90
58951;DHT22;44730;53.158;6.398;2023-02-04T08:47:40;5.80;99.90
58951;DHT22;44730;53.158;6.398;2023-02-04T08:50:06;5.90;99.90
58951;DHT22;44730;53.158;6.398;2023-02-04T08:52:31;5.90;99.90
58951;DHT22;44730;53.158;6.398;2023-02-04T08:54:57;6.00;99.90
58951;DHT22;44730;53.158;6.398;2023-02-04T08:57:23;6.50;99.90
58951;DHT22;44730;53.158;6.398;2023-02-04T08:59:48;6.10;99.90
58951;DHT22;44730;53.158;6.398;2023-02-04T09:02:14;6.20;99.90
58951;DHT22;44730;53.158;6.398;2023-02-04T09:04:40;6.20;99.90
58951;DHT22;44730;53.158;6.398;2023-02-04T09:07:06;6.60;99.90
58951;DHT22;44730;53.158;6.398;2023-02-04T09:09:31;6.20;99.90
58951;DHT22;44730;53.158;6.398;2023-02-04T09:11:57;6.30;99.90
58951;DHT22;44730;53.158;6.398;2023-02-04T09:14:26;6.40;99.90
58951;DHT22;44730;53.158;6.398;2023-02-04T09:16:51;6.70;99.90
58951;DHT22;44730;53.158;6.398;2023-02-04T09:19:17;6.60;99.90
58951;DHT22;44730;53.158;6.398;2023-02-04T09:21:48;6.80;99.90
58951;DHT22;44730;53.158;6.398;2023-02-04T09:24:14;6.70;99.90
58951;DHT22;44730;53.158;6.398;2023-02-04T09:26:40;6.70;99.90
58951;DHT22;44730;53.158;6.398;2023-02-04T09:29:05;6.70;99.90
58951;DHT22;44730;53.158;6.398;2023-02-04T09:31:31;6.70;99.90
58951;DHT22;44730;53.158;6.398;2023-02-04T09:33:57;6.70;99.90
58951;DHT22;44730;53.158;6.398;2023-02-04T09:36:22;6.70;99.90
58951;DHT22;44730;53.158;6.398;2023-02-04T09:38:52;6.90;99.90
58951;DHT22;44730;53.158;6.398;2023-02-04T09:41:18;6.70;99.90
58951;DHT22;44730;53.158;6.398;2023-02-04T09:43:44;6.70;99.90
58951;DHT22;44730;53.158;6.398;2023-02-04T09:46:19;7.10;99.90
58951;DHT22;44730;53.158;6.398;2023-02-04T09:48:49;6.80;99.90
58951;DHT22;44730;53.158;6.398;2023-02-04T09:51:27;6.90;99.90
58951;DHT22;44730;53.158;6.398;2023-02-04T09:53:58;7.00;99.90
58951;DHT22;44730;53.158;6.398;2023-02-04T09:56:26;7.20;99.90
58951;DHT22;44730;53.158;6.398;2023-02-04T09:58:52;7.80;99.90
58951;DHT22;44730;53.158;6.398;2023-02-04T10:01:19;8.80;99.90
58951;DHT22;44730;53.158;6.398;2023-02-04T10:03:46;9.70;99.90
58951;DHT22;44730;53.158;6.398;2023-02-04T10:06:18;10.10;99.90
58951;DHT22;44730;53.158;6.398;2023-02-04T10:08:46;10.20;99.90
58951;DHT22;44730;53.158;6.398;2023-02-04T10:11:12;9.80;99.90
58951;DHT22;44730;53.158;6.398;2023-02-04T10:13:42;9.30;99.90
58951;DHT22;44730;53.158;6.398;2023-02-04T10:16:16;9.00;99.90
58951;DHT22;44730;53.158;6.398;2023-02-04T10:18:42;8.60;99.90
58951;DHT22;44730;53.158;6.398;2023-02-04T10:21:16;8.40;99.90
58951;DHT22;44730;53.158;6.398;2023-02-04T10:23:45;8.20;99.90
58951;DHT22;44730;53.158;6.398;2023-02-04T10:26:13;8.00;99.90
58951;DHT22;44730;53.158;6.398;2023-02-04T10:28:40;7.80;99.90
58951;DHT22;44730;53.158;6.398;2023-02-04T10:31:24;7.80;99.90
58951;DHT22;44730;53.158;6.398;2023-02-04T10:34:02;7.80;99.90
58951;DHT22;44730;53.158;6.398;2023-02-04T10:36:27;7.80;99.90
58951;DHT22;44730;53.158;6.398;2023-02-04T10:39:19;7.70;99.90
58951;DHT22;44730;53.158;6.398;2023-02-04T10:44:17;7.80;99.90
58951;DHT22;44730;53.158;6.398;2023-02-04T10:46:43;8.30;99.90
58951;DHT22;44730;53.158;6.398;2023-02-04T10:49:21;7.90;99.90
58951;DHT22;44730;53.158;6.398;2023-02-04T10:51:49;8.00;99.90
58951;DHT22;44730;53.158;6.398;2023-02-04T10:54:16;8.10;99.90
58951;DHT22;44730;53.158;6.398;2023-02-04T10:59:26;8.00;99.90
58951;DHT22;44730;53.158;6.398;2023-02-04T11:01:58;8.20;99.90
58951;DHT22;44730;53.158;6.398;2023-02-04T11:04:25;8.20;99.90
58951;DHT22;44730;53.158;6.398;2023-02-04T11:06:58;8.90;99.90
58951;DHT22;44730;53.158;6.398;2023-02-04T11:09:24;8.40;99.90
58951;DHT22;44730;53.158;6.398;2023-02-04T11:11:50;8.40;99.90
58951;DHT22;44730;53.158;6.398;2023-02-04T11:14:28;8.40;99.90
58951;DHT22;44730;53.158;6.398;2023-02-04T11:16:55;8.50;99.90
58951;DHT22;44730;53.158;6.398;2023-02-04T11:19:51;8.50;99.90
58951;DHT22;44730;53.158;6.398;2023-02-04T11:25:32;8.50;99.90
58951;DHT22;44730;53.158;6.398;2023-02-04T11:27:58;8.40;99.90
58951;DHT22;44730;53.158;6.398;2023-02-04T11:30:31;8.30;99.90
58951;DHT22;44730;53.158;6.398;2023-02-04T11:33:03;8.30;99.90
58951;DHT22;44730;53.158;6.398;2023-02-04T11:35:29;8.20;99.90
58951;DHT22;44730;53.158;6.398;2023-02-04T11:37:56;8.10;99.90
58951;DHT22;44730;53.158;6.398;2023-02-04T11:40:30;8.10;99.90
58951;DHT22;44730;53.158;6.398;2023-02-04T11:42:57;8.10;99.90
58951;DHT22;44730;53.158;6.398;2023-02-04T11:45:35;8.10;99.90
58951;DHT22;44730;53.158;6.398;2023-02-04T11:51:01;8.20;99.90
58951;DHT22;44730;53.158;6.398;2023-02-04T11:53:31;8.70;99.90
58951;DHT22;44730;53.158;6.398;2023-02-04T11:55:57;8.20;99.90
58951;DHT22;44730;53.158;6.398;2023-02-04T11:58:24;8.20;99.90
58951;DHT22;44730;53.158;6.398;2023-02-04T12:00:53;8.20;99.90
58951;DHT22;44730;53.158;6.398;2023-02-04T12:03:27;8.30;99.90
58951;DHT22;44730;53.158;6.398;2023-02-04T12:05:57;8.50;99.90
58951;DHT22;44730;53.158;6.398;2023-02-04T12:08:33;8.70;99.90
58951;DHT22;44730;53.158;6.398;2023-02-04T12:11:10;8.60;99.90
58951;DHT22;44730;53.158;6.398;2023-02-04T12:13:54;8.90;99.90
58951;DHT22;44730;53.158;6.398;2023-02-04T12:16:21;8.70;99.90
58951;DHT22;44730;53.158;6.398;2023-02-04T12:18:46;8.70;99.90
58951;DHT22;44730;53.158;6.398;2023-02-04T12:21:12;8.60;99.90
58951;DHT22;44730;53.158;6.398;2023-02-04T12:23:43;8.60;99.90
58951;DHT22;44730;53.158;6.398;2023-02-04T12:26:09;8.50;99.90
58951;DHT22;44730;53.158;6.398;2023-02-04T12:28:35;8.40;99.90
58951;DHT22;44730;53.158;6.398;2023-02-04T12:31:00;8.40;99.90
58951;DHT22;44730;53.158;6.398;2023-02-04T12:33:26;8.40;99.90
58951;DHT22;44730;53.158;6.398;2023-02-04T12:35:52;8.40;99.90
58951;DHT22;44730;53.158;6.398;2023-02-04T12:38:18;8.40;99.90
58951;DHT22;44730;53.158;6.398;2023-02-04T12:40:44;8.40;99.90
58951;DHT22;44730;53.158;6.398;2023-02-04T12:43:10;8.40;99.90
58951;DHT22;44730;53.158;6.398;2023-02-04T12:45:36;8.30;99.90
58951;DHT22;44730;53.158;6.398;2023-02-04T12:48:03;8.30;99.90
58951;DHT22;44730;53.158;6.398;2023-02-04T12:50:28;8.30;99.90
58951;DHT22;44730;53.158;6.398;2023-02-04T12:52:56;8.30;99.90
58951;DHT22;44730;53.158;6.398;2023-02-04T12:55:24;8.40;99.90
58951;DHT22;44730;53.158;6.398;2023-02-04T12:57:50;8.40;99.90
58951;DHT22;44730;53.158;6.398;2023-02-04T13:00:18;8.40;99.90
58951;DHT22;44730;53.158;6.398;2023-02-04T13:02:44;8.40;99.90
58951;DHT22;44730;53.158;6.398;2023-02-04T13:05:10;8.40;99.90
58951;DHT22;44730;53.158;6.398;2023-02-04T13:07:36;8.40;99.90
58951;DHT22;44730;53.158;6.398;2023-02-04T13:10:05;8.30;99.90
58951;DHT22;44730;53.158;6.398;2023-02-04T13:12:31;8.30;99.90
58951;DHT22;44730;53.158;6.398;2023-02-04T13:14:57;8.30;99.90
58951;DHT22;44730;53.158;6.398;2023-02-04T13:17:23;8.30;99.90
58951;DHT22;44730;53.158;6.398;2023-02-04T13:19:49;8.20;99.90
58951;DHT22;44730;53.158;6.398;2023-02-04T13:22:14;8.20;99.90
58951;DHT22;44730;53.158;6.398;2023-02-04T13:24:40;8.20;99.90
58951;DHT22;44730;53.158;6.398;2023-02-04T13:27:06;8.10;99.90
58951;DHT22;44730;53.158;6.398;2023-02-04T13:29:32;8.20;99.90
58951;DHT22;44730;53.158;6.398;2023-02-04T13:32:00;8.10;99.90
58951;DHT22;44730;53.158;6.398;2023-02-04T13:34:27;8.20;99.90
58951;DHT22;44730;53.158;6.398;2023-02-04T13:36:53;8.10;99.90
58951;DHT22;44730;53.158;6.398;2023-02-04T13:39:18;8.10;99.90
58951;DHT22;44730;53.158;6.398;2023-02-04T13:41:44;8.10;99.90
58951;DHT22;44730;53.158;6.398;2023-02-04T13:44:12;8.20;99.90
58951;DHT22;44730;53.158;6.398;2023-02-04T13:46:38;8.20;99.90
58951;DHT22;44730;53.158;6.398;2023-02-04T13:49:03;8.30;99.90
58951;DHT22;44730;53.158;6.398;2023-02-04T13:51:29;8.30;99.90
58951;DHT22;44730;53.158;6.398;2023-02-04T13:53:58;8.30;99.90
58951;DHT22;44730;53.158;6.398;2023-02-04T13:56:26;8.80;99.90
58951;DHT22;44730;53.158;6.398;2023-02-04T13:58:51;8.30;99.90
58951;DHT22;44730;53.158;6.398;2023-02-04T14:01:18;8.40;99.90
58951;DHT22;44730;53.158;6.398;2023-02-04T14:03:43;8.30;99.90
58951;DHT22;44730;53.158;6.398;2023-02-04T14:06:11;8.40;99.90
58951;DHT22;44730;53.158;6.398;2023-02-04T14:08:37;8.30;99.90
58951;DHT22;44730;53.158;6.398;2023-02-04T14:11:03;8.30;99.90
58951;DHT22;44730;53.158;6.398;2023-02-04T14:13:29;8.30;99.90
58951;DHT22;44730;53.158;6.398;2023-02-04T14:15:55;8.30;99.90
58951;DHT22;44730;53.158;6.398;2023-02-04T14:18:21;8.30;99.90
58951;DHT22;44730;53.158;6.398;2023-02-04T14:20:46;8.30;99.90
58951;DHT22;44730;53.158;6.398;2023-02-04T14:23:12;8.30;99.90
58951;DHT22;44730;53.158;6.398;2023-02-04T14:25:38;8.30;99.90
58951;DHT22;44730;53.158;6.398;2023-02-04T14:28:04;8.20;99.90
58951;DHT22;44730;53.158;6.398;2023-02-04T14:30:30;8.20;99.90
58951;DHT22;44730;53.158;6.398;2023-02-04T14:32:57;8.20;99.90
58951;DHT22;44730;53.158;6.398;2023-02-04T14:35:23;8.20;99.90
58951;DHT22;44730;53.158;6.398;2023-02-04T14:37:49;8.10;99.90
58951;DHT22;44730;53.158;6.398;2023-02-04T14:40:16;8.20;99.90
58951;DHT22;44730;53.158;6.398;2023-02-04T14:42:42;8.10;99.90
58951;DHT22;44730;53.158;6.398;2023-02-04T14:45:09;8.10;99.90
58951;DHT22;44730;53.158;6.398;2023-02-04T14:47:35;8.00;99.90
58951;DHT22;44730;53.158;6.398;2023-02-04T14:50:02;8.00;99.90
58951;DHT22;44730;53.158;6.398;2023-02-04T14:52:28;8.00;99.90
58951;DHT22;44730;53.158;6.398;2023-02-04T14:54:53;8.30;99.90
58951;DHT22;44730;53.158;6.398;2023-02-04T14:57:19;8.00;99.90
58951;DHT22;44730;53.158;6.398;2023-02-04T14:59:45;8.00;99.90
58951;DHT22;44730;53.158;6.398;2023-02-04T15:02:11;7.90;99.90
58951;DHT22;44730;53.158;6.398;2023-02-04T15:04:39;7.90;99.90
58951;DHT22;44730;53.158;6.398;2023-02-04T15:07:05;7.80;99.90
58951;DHT22;44730;53.158;6.398;2023-02-04T15:09:30;7.80;99.90
58951;DHT22;44730;53.158;6.398;2023-02-04T15:11:56;7.70;99.90
58951;DHT22;44730;53.158;6.398;2023-02-04T15:14:22;7.60;99.90
58951;DHT22;44730;53.158;6.398;2023-02-04T15:16:47;7.60;99.90
58951;DHT22;44730;53.158;6.398;2023-02-04T15:19:14;7.50;99.90
58951;DHT22;44730;53.158;6.398;2023-02-04T15:21:40;7.60;99.90
58951;DHT22;44730;53.158;6.398;2023-02-04T15:24:06;7.90;99.90
58951;DHT22;44730;53.158;6.398;2023-02-04T15:26:31;7.50;99.90
58951;DHT22;44730;53.158;6.398;2023-02-04T15:28:57;7.50;99.90
58951;DHT22;44730;53.158;6.398;2023-02-04T15:31:23;7.10;99.90
58951;DHT22;44730;53.158;6.398;2023-02-04T15:33:49;7.00;99.90
58951;DHT22;44730;53.158;6.398;2023-02-04T15:36:15;7.40;99.90
58951;DHT22;44730;53.158;6.398;2023-02-04T15:38:41;7.00;99.90
58951;DHT22;44730;53.158;6.398;2023-02-04T15:41:07;7.40;99.90
58951;DHT22;44730;53.158;6.398;2023-02-04T15:43:32;6.90;99.90
58951;DHT22;44730;53.158;6.398;2023-02-04T15:45:58;6.90;99.90
58951;DHT22;44730;53.158;6.398;2023-02-04T15:48:24;7.00;99.90
58951;DHT22;44730;53.158;6.398;2023-02-04T15:50:51;6.80;99.90
58951;DHT22;44730;53.158;6.398;2023-02-04T15:53:17;7.10;99.90
58951;DHT22;44730;53.158;6.398;2023-02-04T15:55:43;7.30;99.90
58951;DHT22;44730;53.158;6.398;2023-02-04T15:58:09;7.00;99.90
58951;DHT22;44730;53.158;6.398;2023-02-04T16:00:35;6.50;99.90
58951;DHT22;44730;53.158;6.398;2023-02-04T16:03:00;6.50;99.90
58951;DHT22;44730;53.158;6.398;2023-02-04T16:05:26;7.10;99.90